Lake Orion, MI

7:45 AM EST on March 01, 2015 (GMT -0500)
Troy | Change Station
CLOSE
Current Station
Airport
Location: Troy,
Elevation: 728 ft
Nearby Weather Stations

Elev 728 ft 42.54 °N, 83.18 °W | Updated 10 minutes ago

Overcast
Overcast
17 °F
Feels Like 17 °F
N
0
Wind Variable Wind from North

Today
High -- | Low -- °F
--% Chance of Precip.
Yesterday
High -- | Low -- °F
Precip. -- in
7:09 AM 6:22 PM
Waxing Gibbous, 85% visible
Pressure 30.41 in
Visibility 7.0 miles
Clouds Overcast 2200 ft
Dew Point 13 °F
Humidity 84%
Rainfall 0.00 in
Snow Depth Not available.
UV 0 out of 12
Pollen .40 out of 12
Air Quality Not available.
Flu Activity Not available.
METAR KVLL 011235Z AUTO 00000KT 7SM OVC022 M08/M11 A3041 RMK AO2 T10851108

More Conditions Fewer Conditions

Pressure 30.41 in
Visibility 7.0 miles
Clouds Overcast 2200 ft
Dew Point 13 °F
Humidity 84%
Rainfall 0.00 in
Snow Depth Not available.
UV 0 out of 12
Pollen .40 out of 12
Air Quality Not available.
Flu Activity Not available.
METAR KVLL 011235Z AUTO 00000KT 7SM OVC022 M08/M11 A3041 RMK AO2 T10851108

More Conditions Fewer Conditions

10-Day Weather Forecast

Almanac

Astronomy

Mar. 01, 2015 Rise Set
Actual Time
Civil Twilight
Nautical Twilight
Astronomical Twilight
Moon
Length of Visible Light
Length of Day
Tomorrow will be .
, % of the Moon is Illuminated

Today's Extremes

State Highs State Lows

Community

WunderPhotos

Upload Photos

1,801,371 photos uploaded!

WunderBlogs® & News

Nearby

Air Quality

  Air Quality AQ Index Pollutant
Not available.

Snow Depth

Station Depth Elevation

Earthquake Activity

City Distance Mag. Time & Date
Minimum magnitude displayed is 2.5.

Coastal Water Temperatures

Place Temperature

Nearby Weather Stations